Cullman, Alabama
Current Conditions -  °F | °C
As of 10:15 AM on Monday 24 Nov 2014 (Local Time) from KCMD Reporting Station
Scattered Clouds Scattered Clouds  
Wind Chill: 60°   Ceiling: Unl
Heat Index: 60°   Visibility: 10mi
Dew Point: 47°   Wind: 10mph
Humidity: 63%   Direction: 270°W
Pressure: 29.84"   Gusts: 16mph
Location:  34.17°N, 86.84°W
Report Text: KCMD 241615Z AUTO 27009G14KT 10SM SCT028 SCT033 16/09 A2984 RMK AO2 T01550085
Loading
Personal Weather Stations






























Interactive Weather Map New forecast layout! Learn more

10-Day Weather Forecast

Advertisements
Track Severe Weather on mobile